createdAt,value
2023-05-14T00:01:57.879Z,6.78
2023-05-14T00:04:28.492Z,6.20
2023-05-14T00:06:59.090Z,6.82
2023-05-14T00:09:30.592Z,6.22
2023-05-14T00:12:03.459Z,6.20
2023-05-14T00:14:33.637Z,6.80
2023-05-14T00:17:03.874Z,6.60
2023-05-14T00:19:34.056Z,7.32
2023-05-14T00:22:04.266Z,6.32
2023-05-14T00:24:34.778Z,6.80
2023-05-14T00:27:08.063Z,7.82
2023-05-14T00:29:38.274Z,8.93
2023-05-14T00:32:09.835Z,8.27
2023-05-14T00:34:40.068Z,6.88
2023-05-14T00:37:10.338Z,5.70
2023-05-14T00:39:40.556Z,6.45
2023-05-14T00:42:15.742Z,7.88
2023-05-14T00:44:45.968Z,6.03
2023-05-14T00:47:16.394Z,6.95
2023-05-14T00:49:46.919Z,7.63
2023-05-14T00:52:18.319Z,5.95
2023-05-14T00:54:50.151Z,6.72
2023-05-14T00:57:23.189Z,6.00
2023-05-14T00:59:53.607Z,6.18
2023-05-14T01:02:24.040Z,6.38
2023-05-14T01:04:55.036Z,8.07
2023-05-14T01:07:33.366Z,7.32
2023-05-14T01:10:09.289Z,6.25
2023-05-14T01:12:52.790Z,7.28
2023-05-14T01:15:30.331Z,12.77
2023-05-14T01:18:03.413Z,5.93
2023-05-14T01:20:34.757Z,7.15
2023-05-14T01:23:07.704Z,6.57
2023-05-14T01:25:38.017Z,9.32
2023-05-14T01:28:14.515Z,9.75
2023-05-14T01:30:49.415Z,5.47
2023-05-14T01:33:21.892Z,6.63
2023-05-14T01:35:53.876Z,8.38
2023-05-14T01:38:27.874Z,6.00
2023-05-14T01:41:01.988Z,6.95
2023-05-14T01:43:36.148Z,8.48
2023-05-14T01:46:06.661Z,7.63
2023-05-14T01:48:39.246Z,7.63
2023-05-14T01:51:09.598Z,6.38
2023-05-14T01:53:42.422Z,7.55
2023-05-14T01:56:12.710Z,6.55
2023-05-14T01:58:42.878Z,6.78
2023-05-14T02:01:13.221Z,6.68
2023-05-14T02:03:43.684Z,6.50
2023-05-14T02:06:13.996Z,6.53
2023-05-14T02:08:46.902Z,8.30
2023-05-14T02:11:17.142Z,9.32
2023-05-14T02:13:47.407Z,6.82
2023-05-14T02:16:17.772Z,6.63
2023-05-14T02:18:48.088Z,10.38
2023-05-14T02:21:18.382Z,6.25
2023-05-14T02:23:51.527Z,8.77
2023-05-14T02:26:21.778Z,7.20
2023-05-14T02:28:52.057Z,9.52
2023-05-14T02:31:22.433Z,6.82
2023-05-14T02:33:53.298Z,6.47
2023-05-14T02:36:23.607Z,6.38
2023-05-14T02:39:00.290Z,7.68
2023-05-14T02:41:30.883Z,6.35
2023-05-14T02:44:01.095Z,8.43
2023-05-14T02:46:31.441Z,8.25
2023-05-14T02:49:02.058Z,7.57
2023-05-14T02:51:32.270Z,6.95
2023-05-14T02:54:05.122Z,9.15
2023-05-14T02:56:35.820Z,8.05
2023-05-14T02:59:06.462Z,7.95
2023-05-14T03:01:37.030Z,7.68
2023-05-14T03:04:08.108Z,6.65
2023-05-14T03:06:38.337Z,7.95
2023-05-14T03:09:11.256Z,7.03
2023-05-14T03:11:44.264Z,6.53
2023-05-14T03:14:16.738Z,8.43
2023-05-14T03:16:46.956Z,7.22
2023-05-14T03:19:17.277Z,6.57
2023-05-14T03:21:47.697Z,6.63
2023-05-14T03:24:20.566Z,8.50
2023-05-14T03:26:50.779Z,7.97
2023-05-14T03:29:21.044Z,6.57
2023-05-14T03:31:51.792Z,6.85
2023-05-14T03:34:22.048Z,6.20
2023-05-14T03:36:54.659Z,6.47
2023-05-14T03:39:27.761Z,6.82
2023-05-14T03:41:59.181Z,6.75
2023-05-14T03:44:29.339Z,6.18
2023-05-14T03:46:59.539Z,6.65
2023-05-14T03:49:29.761Z,8.15
2023-05-14T03:52:00.394Z,6.32
2023-05-14T03:54:33.283Z,6.90
2023-05-14T03:57:03.460Z,6.28
2023-05-14T03:59:35.899Z,7.75
2023-05-14T04:02:06.346Z,7.20
2023-05-14T04:04:36.641Z,10.60
2023-05-14T04:07:07.323Z,5.65
2023-05-14T04:09:40.161Z,7.20
2023-05-14T04:12:11.964Z,6.47
2023-05-14T04:14:42.406Z,6.65
2023-05-14T04:17:12.614Z,7.22
2023-05-14T04:19:42.852Z,5.50
2023-05-14T04:22:13.138Z,7.88
2023-05-14T04:24:46.148Z,5.53
2023-05-14T04:27:22.661Z,5.72
2023-05-14T04:29:53.239Z,5.35
2023-05-14T04:32:23.478Z,5.43
2023-05-14T04:34:53.723Z,5.35
2023-05-14T04:37:24.004Z,4.70
2023-05-14T04:39:58.975Z,7.38
2023-05-14T04:42:29.202Z,7.53
2023-05-14T04:44:59.407Z,7.07
2023-05-14T04:47:29.973Z,7.25
2023-05-14T04:50:00.494Z,5.47
2023-05-14T04:52:30.832Z,6.72
2023-05-14T04:55:03.694Z,5.57
2023-05-14T04:57:35.358Z,5.15
2023-05-14T05:00:09.984Z,5.20
2023-05-14T05:02:43.257Z,4.95
2023-05-14T05:05:13.834Z,4.90
2023-05-14T05:07:44.047Z,5.20
2023-05-14T05:10:17.009Z,8.35
2023-05-14T05:12:47.193Z,6.05
2023-05-14T05:15:17.363Z,7.15
2023-05-14T05:17:47.609Z,8.43
2023-05-14T05:20:18.148Z,7.13
2023-05-14T05:22:48.365Z,5.60
2023-05-14T05:25:21.527Z,4.90
2023-05-14T05:27:51.729Z,4.47
2023-05-14T05:30:23.853Z,6.32
2023-05-14T05:32:54.471Z,6.43
2023-05-14T05:35:25.802Z,5.85
2023-05-14T05:37:56.082Z,6.07
2023-05-14T05:40:28.961Z,5.05
2023-05-14T05:42:59.172Z,6.70
2023-05-14T05:45:29.444Z,6.75
2023-05-14T05:48:02.375Z,5.90
2023-05-14T05:50:34.664Z,10.45
2023-05-14T05:53:04.961Z,6.07
2023-05-14T05:55:37.906Z,7.80
2023-05-14T05:58:08.149Z,8.67
2023-05-14T06:00:38.334Z,5.40
2023-05-14T06:03:11.224Z,6.13
2023-05-14T06:05:41.641Z,6.00
2023-05-14T06:08:14.553Z,10.55
2023-05-14T06:10:47.870Z,7.38
2023-05-14T06:13:18.087Z,10.50
2023-05-14T06:15:48.453Z,5.63
2023-05-14T06:18:18.718Z,5.15
2023-05-14T06:20:49.014Z,5.75
2023-05-14T06:23:19.279Z,13.88
2023-05-14T06:25:53.149Z,5.45
2023-05-14T06:28:23.336Z,9.15
2023-05-14T06:30:54.232Z,5.70
2023-05-14T06:33:31.205Z,5.28
2023-05-14T06:36:01.826Z,5.78
2023-05-14T06:38:32.042Z,5.53
2023-05-14T06:41:04.918Z,6.57
2023-05-14T06:43:35.165Z,6.13
2023-05-14T06:46:05.458Z,6.70
2023-05-14T06:48:37.700Z,6.32
2023-05-14T06:51:08.010Z,6.75
2023-05-14T06:53:40.833Z,6.22
2023-05-14T06:56:14.914Z,5.70
2023-05-14T06:58:47.253Z,5.97
2023-05-14T07:01:17.687Z,5.05
2023-05-14T07:03:47.902Z,5.95
2023-05-14T07:06:18.455Z,7.03
2023-05-14T07:08:48.927Z,6.40
2023-05-14T07:11:22.487Z,5.20
2023-05-14T07:13:52.728Z,7.97
2023-05-14T07:16:23.113Z,6.35
2023-05-14T07:18:53.510Z,7.18
2023-05-14T07:21:24.030Z,8.13
2023-05-14T07:23:54.397Z,6.32
2023-05-14T07:26:27.407Z,5.53
2023-05-14T07:28:57.627Z,4.83
2023-05-14T07:31:27.949Z,6.18
2023-05-14T07:33:58.231Z,5.13
2023-05-14T07:36:28.763Z,5.00
2023-05-14T07:38:59.084Z,5.90
2023-05-14T07:41:31.955Z,5.20
2023-05-14T07:44:02.212Z,7.93
2023-05-14T07:46:32.444Z,5.70
2023-05-14T07:49:02.698Z,6.38
2023-05-14T07:51:33.773Z,5.45
2023-05-14T07:54:04.065Z,5.13
2023-05-14T07:56:36.998Z,6.47
2023-05-14T07:59:10.066Z,6.40
2023-05-14T08:01:40.322Z,7.68
2023-05-14T08:04:11.904Z,6.07
2023-05-14T08:06:42.258Z,5.10
2023-05-14T08:09:12.506Z,6.88
2023-05-14T08:11:45.318Z,5.65
2023-05-14T08:16:46.683Z,5.13
2023-05-14T08:19:17.099Z,6.57
2023-05-14T08:21:47.470Z,5.60
2023-05-14T08:24:17.656Z,6.05
2023-05-14T08:26:50.891Z,5.57
2023-05-14T08:29:21.208Z,7.72
2023-05-14T08:31:52.809Z,9.27
2023-05-14T08:34:23.139Z,6.80
2023-05-14T08:36:56.533Z,5.38
2023-05-14T08:39:26.756Z,4.78
2023-05-14T08:42:01.624Z,5.32
2023-05-14T08:44:37.513Z,5.80
2023-05-14T08:47:08.657Z,5.35
2023-05-14T08:49:43.818Z,7.60
2023-05-14T08:52:14.384Z,6.25
2023-05-14T08:54:44.700Z,6.10
2023-05-14T08:57:18.137Z,5.32
2023-05-14T08:59:48.724Z,6.22
2023-05-14T09:02:19.938Z,7.32
2023-05-14T09:04:50.857Z,7.28
2023-05-14T09:07:21.743Z,7.18
2023-05-14T09:09:51.926Z,5.57
2023-05-14T09:12:25.358Z,10.20
2023-05-14T09:14:55.700Z,6.68
2023-05-14T09:17:29.222Z,9.15
2023-05-14T09:19:59.630Z,5.25
2023-05-14T09:22:33.225Z,5.13
2023-05-14T09:25:09.692Z,12.70
2023-05-14T09:27:42.734Z,18.48
2023-05-14T09:30:14.659Z,5.18
2023-05-14T09:32:47.527Z,6.50
2023-05-14T09:35:22.866Z,4.70
2023-05-14T09:37:54.831Z,6.43
2023-05-14T09:40:26.751Z,4.93
2023-05-14T09:43:02.114Z,6.13
2023-05-14T09:45:35.152Z,5.82
2023-05-14T09:48:06.207Z,5.13
2023-05-14T09:50:44.564Z,6.00
2023-05-14T09:53:14.956Z,5.47
2023-05-14T09:55:45.416Z,6.05
2023-05-14T09:58:18.323Z,7.78
2023-05-14T10:00:52.203Z,7.27
2023-05-14T10:03:24.949Z,5.68
2023-05-14T10:05:55.872Z,5.55
2023-05-14T10:08:30.041Z,5.85
2023-05-14T10:11:02.396Z,6.20
2023-05-14T10:13:45.559Z,9.48
2023-05-14T10:16:22.857Z,5.87
2023-05-14T10:18:57.336Z,7.50
2023-05-14T10:21:29.799Z,4.95
2023-05-14T10:24:00.670Z,4.95
2023-05-14T10:26:31.666Z,6.15
2023-05-14T10:29:04.544Z,9.40
2023-05-14T10:31:51.865Z,6.47
2023-05-14T10:34:37.522Z,13.48
2023-05-14T10:37:09.336Z,8.38
2023-05-14T10:39:47.602Z,6.55
2023-05-14T10:42:22.985Z,10.52
2023-05-14T10:44:58.999Z,5.18
2023-05-14T10:47:29.813Z,7.93
2023-05-14T10:50:02.182Z,8.05
2023-05-14T10:52:33.404Z,6.90
2023-05-14T10:55:10.402Z,5.32
2023-05-14T10:57:44.985Z,6.13
2023-05-14T11:00:19.065Z,7.95
2023-05-14T11:02:52.450Z,3.58
2023-05-14T11:05:22.801Z,7.75
2023-05-14T11:07:55.450Z,7.63
2023-05-14T11:10:26.158Z,8.00
2023-05-14T11:12:56.624Z,6.30
2023-05-14T11:15:30.177Z,5.20
2023-05-14T11:18:00.497Z,8.88
2023-05-14T11:20:32.954Z,37.38
2023-05-14T11:23:03.748Z,7.38
2023-05-14T11:25:34.473Z,17.48
2023-05-14T11:28:04.984Z,6.07
2023-05-14T11:30:39.896Z,7.47
2023-05-14T11:33:10.336Z,6.10
2023-05-14T11:35:42.314Z,5.82
2023-05-14T11:38:17.624Z,6.38
2023-05-14T11:40:55.747Z,5.78
2023-05-14T11:43:29.484Z,5.97
2023-05-14T11:46:05.254Z,6.18
2023-05-14T11:48:36.266Z,6.18
2023-05-14T11:51:12.953Z,7.15
2023-05-14T11:53:43.292Z,6.00
2023-05-14T11:56:14.609Z,5.63
2023-05-14T11:58:51.210Z,6.25
2023-05-14T12:01:24.260Z,7.13
2023-05-14T12:03:55.148Z,7.63
2023-05-14T12:06:33.295Z,6.93
2023-05-14T12:09:03.615Z,9.10
2023-05-14T12:11:34.858Z,16.35
2023-05-14T12:14:08.145Z,6.15
2023-05-14T12:16:47.011Z,7.10
2023-05-14T12:19:19.121Z,8.65
2023-05-14T12:21:51.361Z,5.55
2023-05-14T12:24:22.700Z,6.32
2023-05-14T12:26:55.682Z,12.05
2023-05-14T12:29:25.946Z,6.97
2023-05-14T12:32:01.161Z,6.45
2023-05-14T12:34:31.312Z,7.35
2023-05-14T12:37:01.542Z,6.47
2023-05-14T12:39:31.728Z,14.35
2023-05-14T12:42:02.044Z,6.93
2023-05-14T12:44:32.416Z,17.08
2023-05-14T12:47:05.399Z,6.03
2023-05-14T12:49:35.779Z,6.00
2023-05-14T12:52:22.737Z,5.32
2023-05-14T12:54:56.394Z,6.60
2023-05-14T12:57:27.971Z,8.23
2023-05-14T12:59:58.712Z,5.78
2023-05-14T13:02:31.945Z,7.03
2023-05-14T13:05:02.968Z,8.48
2023-05-14T13:07:33.616Z,5.35
2023-05-14T13:10:05.815Z,6.65
2023-05-14T13:12:36.600Z,5.38
2023-05-14T13:15:07.569Z,25.15
2023-05-14T13:17:41.591Z,6.40
2023-05-14T13:20:16.245Z,8.38
2023-05-14T13:22:46.486Z,9.32
2023-05-14T13:25:16.744Z,4.53
2023-05-14T13:27:47.001Z,5.60
2023-05-14T13:30:17.690Z,5.88
2023-05-14T13:32:51.377Z,6.13
2023-05-14T13:37:52.242Z,6.93
2023-05-14T13:40:22.796Z,5.13
2023-05-14T13:42:53.113Z,5.95
2023-05-14T13:45:23.485Z,5.43
2023-05-14T13:47:56.852Z,7.88
2023-05-14T13:50:27.211Z,5.82
2023-05-14T13:52:57.532Z,11.95
2023-05-14T13:55:29.468Z,9.35
2023-05-14T13:58:04.534Z,7.72
2023-05-14T14:00:34.879Z,6.28
2023-05-14T14:03:08.672Z,6.35
2023-05-14T14:05:39.459Z,8.15
2023-05-14T14:08:22.793Z,6.95
2023-05-14T14:10:55.593Z,8.63
2023-05-14T14:13:26.353Z,8.40
2023-05-14T14:15:57.080Z,7.90
2023-05-14T14:18:30.127Z,7.85
2023-05-14T14:21:00.621Z,6.70
2023-05-14T14:23:30.902Z,8.55
2023-05-14T14:26:01.154Z,5.88
2023-05-14T14:28:31.590Z,9.70
2023-05-14T14:31:01.901Z,22.00
2023-05-14T14:33:34.791Z,20.38
2023-05-14T14:36:05.132Z,6.25
2023-05-14T14:38:35.529Z,11.75
2023-05-14T14:41:07.917Z,24.27
2023-05-14T14:43:38.543Z,43.00
2023-05-14T14:46:09.599Z,24.00
2023-05-14T14:48:42.728Z,13.70
2023-05-14T14:51:15.275Z,48.20
2023-05-14T14:53:45.935Z,45.03
2023-05-14T14:56:16.211Z,23.83
2023-05-14T14:58:46.434Z,23.58
2023-05-14T15:01:17.130Z,15.68
2023-05-14T15:03:50.191Z,12.57
2023-05-14T15:06:20.625Z,14.63
2023-05-14T15:08:50.883Z,15.98
2023-05-14T15:11:21.260Z,10.77
2023-05-14T15:13:51.828Z,13.40
2023-05-14T15:16:22.138Z,15.68
2023-05-14T15:18:55.091Z,8.20
2023-05-14T15:21:27.605Z,9.63
2023-05-14T15:23:57.856Z,33.53
2023-05-14T15:26:28.362Z,43.15
2023-05-14T15:28:59.231Z,11.30
2023-05-14T15:31:31.750Z,31.65
2023-05-14T15:34:04.667Z,11.50
2023-05-14T15:36:34.995Z,16.02
2023-05-14T15:39:05.288Z,19.80
2023-05-14T15:41:42.953Z,30.35
2023-05-14T15:44:15.926Z,30.02
2023-05-14T15:46:46.258Z,17.38
2023-05-14T15:49:19.400Z,7.88
2023-05-14T15:51:49.738Z,7.53
2023-05-14T15:54:19.994Z,7.65
2023-05-14T15:56:50.298Z,17.90
2023-05-14T15:59:20.551Z,7.30
2023-05-14T16:01:50.835Z,13.77
2023-05-14T16:04:23.678Z,9.65
2023-05-14T16:06:54.513Z,10.13
2023-05-14T16:09:27.705Z,6.53
2023-05-14T16:11:57.969Z,6.68
2023-05-14T16:14:28.181Z,15.05
2023-05-14T16:16:58.485Z,32.33
2023-05-14T16:19:31.522Z,15.02
2023-05-14T16:22:04.219Z,5.87
2023-05-14T16:24:34.425Z,69.30
2023-05-14T16:27:04.726Z,17.10
2023-05-14T16:29:34.995Z,12.00
2023-05-14T16:32:05.442Z,9.77
2023-05-14T16:34:38.265Z,11.35
2023-05-14T16:37:09.653Z,12.73
2023-05-14T16:39:40.980Z,8.77
2023-05-14T16:42:11.355Z,6.50
2023-05-14T16:44:41.656Z,12.43
2023-05-14T16:47:13.321Z,10.63
2023-05-14T16:49:47.165Z,18.52
2023-05-14T16:52:17.446Z,11.30
2023-05-14T16:54:47.849Z,8.00
2023-05-14T16:57:18.235Z,7.75
2023-05-14T16:59:48.492Z,6.47
2023-05-14T17:02:18.974Z,18.70
2023-05-14T17:04:51.916Z,16.00
2023-05-14T17:07:24.652Z,8.27
2023-05-14T17:09:55.015Z,23.85
2023-05-14T17:12:25.202Z,7.03
2023-05-14T17:14:55.525Z,7.72
2023-05-14T17:17:25.785Z,25.98
2023-05-14T17:19:58.746Z,20.77
2023-05-14T17:22:29.135Z,26.15
2023-05-14T17:24:59.455Z,10.82
2023-05-14T17:27:32.021Z,28.42
2023-05-14T17:30:02.362Z,22.75
2023-05-14T17:32:33.323Z,30.67
2023-05-14T17:35:09.920Z,19.27
2023-05-14T17:37:40.231Z,16.88
2023-05-14T17:40:15.118Z,24.92
2023-05-14T17:42:48.490Z,38.67
2023-05-14T17:45:20.911Z,15.65
2023-05-14T17:47:52.770Z,7.88
2023-05-14T17:50:25.763Z,10.65
2023-05-14T17:52:58.804Z,31.67
2023-05-14T17:55:29.877Z,30.20
2023-05-14T17:58:00.195Z,15.07
2023-05-14T18:00:30.586Z,7.80
2023-05-14T18:03:00.931Z,16.00
2023-05-14T18:05:34.243Z,36.28
2023-05-14T18:08:05.161Z,24.20
2023-05-14T18:10:36.374Z,30.80
2023-05-14T18:13:06.929Z,7.85
2023-05-14T18:15:39.036Z,20.55
2023-05-14T18:18:09.664Z,8.88
2023-05-14T18:20:42.568Z,17.38
2023-05-14T18:23:13.095Z,22.83
2023-05-14T18:25:43.650Z,14.70
2023-05-14T18:28:16.817Z,17.92
2023-05-14T18:30:47.795Z,43.05
2023-05-14T18:33:18.553Z,11.35
2023-05-14T18:35:51.915Z,16.13
2023-05-14T18:38:25.592Z,19.88
2023-05-14T18:40:56.280Z,27.10
2023-05-14T18:43:26.920Z,42.78
2023-05-14T18:45:57.851Z,34.00
2023-05-14T18:48:28.615Z,43.20
2023-05-14T18:51:01.871Z,28.55
2023-05-14T18:53:32.704Z,12.10
2023-05-14T18:56:05.005Z,41.72
2023-05-14T18:58:36.185Z,12.77
2023-05-14T19:01:06.930Z,14.48
2023-05-14T19:03:37.741Z,26.80
2023-05-14T19:06:11.773Z,19.45
2023-05-14T19:11:13.687Z,7.35
2023-05-14T19:13:46.813Z,9.15
2023-05-14T19:16:17.645Z,7.47
2023-05-14T19:18:48.457Z,16.05
2023-05-14T19:21:21.655Z,9.15
2023-05-14T19:23:52.347Z,27.65
2023-05-14T19:26:22.944Z,22.35
2023-05-14T19:28:58.595Z,36.08
2023-05-14T19:31:29.481Z,9.32
2023-05-14T19:34:00.116Z,23.45
2023-05-14T19:36:34.538Z,9.45
2023-05-14T19:39:05.432Z,37.95
2023-05-14T19:41:36.024Z,25.05
2023-05-14T19:44:06.689Z,25.33
2023-05-14T19:46:37.528Z,8.40
2023-05-14T19:49:08.134Z,41.22
2023-05-14T19:51:41.418Z,42.67
2023-05-14T19:54:11.975Z,33.03
2023-05-14T19:56:42.857Z,80.55
2023-05-14T19:59:13.479Z,6.80
2023-05-14T20:01:44.384Z,45.65
2023-05-14T20:04:16.368Z,10.77
2023-05-14T20:06:49.527Z,21.80
2023-05-14T20:09:26.223Z,23.43
2023-05-14T20:11:56.477Z,45.92
2023-05-14T20:14:26.939Z,27.75
2023-05-14T20:16:58.193Z,8.70
2023-05-14T20:19:29.692Z,40.03
2023-05-14T20:22:05.467Z,30.40
2023-05-14T20:24:35.844Z,30.52
2023-05-14T20:27:06.128Z,49.55
2023-05-14T20:29:36.539Z,25.33
2023-05-14T20:32:07.316Z,46.47
2023-05-14T20:34:37.563Z,38.13
2023-05-14T20:37:10.513Z,33.58
2023-05-14T20:39:40.792Z,18.17
2023-05-14T20:42:11.139Z,19.88
2023-05-14T20:44:41.372Z,60.65
2023-05-14T20:47:12.889Z,25.83
2023-05-14T20:49:43.123Z,43.85
2023-05-14T20:52:16.247Z,20.23
2023-05-14T20:54:46.713Z,32.85
2023-05-14T20:57:19.401Z,20.23
2023-05-14T20:59:49.642Z,52.15
2023-05-14T21:02:19.936Z,52.58
2023-05-14T21:04:51.073Z,14.35
2023-05-14T21:07:24.294Z,37.80
2023-05-14T21:09:55.075Z,26.13
2023-05-14T21:12:25.874Z,58.22
2023-05-14T21:14:56.145Z,16.77
2023-05-14T21:17:26.423Z,44.00
2023-05-14T21:19:56.716Z,21.58
2023-05-14T21:22:29.934Z,21.98
2023-05-14T21:25:00.220Z,74.20
2023-05-14T21:27:30.493Z,49.00
2023-05-14T21:30:03.086Z,24.08
2023-05-14T21:32:35.406Z,25.88
2023-05-14T21:35:05.816Z,13.75
2023-05-14T21:37:39.912Z,43.70
2023-05-14T21:40:12.642Z,64.95
2023-05-14T21:42:43.418Z,78.13
2023-05-14T21:45:14.262Z,44.78
2023-05-14T21:47:44.652Z,42.83
2023-05-14T21:50:17.173Z,79.95
2023-05-14T21:52:49.965Z,194.80
2023-05-14T21:55:20.440Z,134.02
2023-05-14T21:57:51.241Z,64.35
2023-05-14T22:00:23.610Z,46.00
2023-05-14T22:02:54.852Z,122.43
2023-05-14T22:05:25.510Z,128.90
2023-05-14T22:07:58.637Z,65.03
2023-05-14T22:10:29.057Z,48.53
2023-05-14T22:12:59.412Z,59.88
2023-05-14T22:15:29.772Z,31.92
2023-05-14T22:18:00.000Z,93.95
2023-05-14T22:20:30.386Z,83.78
2023-05-14T22:23:03.194Z,80.65
2023-05-14T22:25:33.469Z,43.17
2023-05-14T22:28:03.693Z,79.03
2023-05-14T22:30:34.024Z,102.13
2023-05-14T22:33:04.380Z,13.52
2023-05-14T22:35:34.636Z,68.00
2023-05-14T22:38:07.748Z,118.70
2023-05-14T22:40:38.210Z,104.10
2023-05-14T22:43:08.491Z,90.45
2023-05-14T22:45:38.831Z,107.75
2023-05-14T22:48:09.657Z,73.80
2023-05-14T22:50:40.119Z,91.80
2023-05-14T22:53:12.971Z,89.97
2023-05-14T22:55:43.282Z,132.77
2023-05-14T22:58:13.634Z,101.78
2023-05-14T23:00:43.963Z,99.72
2023-05-14T23:03:14.186Z,113.82
2023-05-14T23:05:44.610Z,84.00
2023-05-14T23:08:17.515Z,115.18
2023-05-14T23:10:47.762Z,93.47
2023-05-14T23:13:19.373Z,112.47
2023-05-14T23:15:49.629Z,97.70
2023-05-14T23:18:19.939Z,116.03
2023-05-14T23:20:50.263Z,68.78
2023-05-14T23:23:23.164Z,74.82
2023-05-14T23:25:53.846Z,118.28
2023-05-14T23:28:24.267Z,114.78
2023-05-14T23:30:54.456Z,55.58
2023-05-14T23:33:24.782Z,119.35
2023-05-14T23:35:57.687Z,99.47
2023-05-14T23:38:30.686Z,112.40
2023-05-14T23:41:00.911Z,124.95
2023-05-14T23:43:31.808Z,177.55
2023-05-14T23:46:04.539Z,92.85
2023-05-14T23:48:34.891Z,144.18
2023-05-14T23:51:05.173Z,122.47
2023-05-14T23:53:37.966Z,99.10
2023-05-14T23:56:09.195Z,93.85
2023-05-14T23:58:39.433Z,68.97
